sensor_id;sensor_type;location;lat;lon;timestamp;pressure;altitude;pressure_sealevel;temperature;humidity
8318;BME280;4196;48.926;8.964;2024-01-15T00:01:55;98111.63;;;-2.56;89.97
8318;BME280;4196;48.926;8.964;2024-01-15T00:04:42;98078.13;;;-2.73;90.15
8318;BME280;4196;48.926;8.964;2024-01-15T00:07:29;98125.66;;;-2.40;90.34
8318;BME280;4196;48.926;8.964;2024-01-15T00:10:15;98104.88;;;-2.55;90.49
8318;BME280;4196;48.926;8.964;2024-01-15T00:13:02;98114.38;;;-2.50;90.98
8318;BME280;4196;48.926;8.964;2024-01-15T00:15:48;98086.31;;;-2.54;90.66
8318;BME280;4196;48.926;8.964;2024-01-15T00:18:34;98087.03;;;-2.58;90.93
8318;BME280;4196;48.926;8.964;2024-01-15T00:21:21;98078.13;;;-2.47;90.71
8318;BME280;4196;48.926;8.964;2024-01-15T00:24:07;98087.03;;;-2.33;90.43
8318;BME280;4196;48.926;8.964;2024-01-15T00:26:54;98078.81;;;-2.26;90.52
8318;BME280;4196;48.926;8.964;2024-01-15T00:29:40;98062.41;;;-2.37;90.69
8318;BME280;4196;48.926;8.964;2024-01-15T00:32:27;98070.22;;;-2.31;90.97
8318;BME280;4196;48.926;8.964;2024-01-15T00:35:14;98047.25;;;-2.35;90.83
8318;BME280;4196;48.926;8.964;2024-01-15T00:38:00;98043.91;;;-2.34;90.46
8318;BME280;4196;48.926;8.964;2024-01-15T00:40:46;98087.06;;;-2.06;90.77
8318;BME280;4196;48.926;8.964;2024-01-15T00:43:33;98084.75;;;-1.98;90.77
8318;BME280;4196;48.926;8.964;2024-01-15T00:46:20;98040.84;;;-2.24;90.67
8318;BME280;4196;48.926;8.964;2024-01-15T00:49:07;98063.69;;;-1.96;90.09
8318;BME280;4196;48.926;8.964;2024-01-15T00:51:53;98083.41;;;-1.87;90.22
8318;BME280;4196;48.926;8.964;2024-01-15T00:54:40;98023.34;;;-2.16;90.48
8318;BME280;4196;48.926;8.964;2024-01-15T00:57:26;98076.75;;;-1.83;90.37
8318;BME280;4196;48.926;8.964;2024-01-15T01:00:13;98085.50;;;-1.74;89.94
8318;BME280;4196;48.926;8.964;2024-01-15T01:03:00;98053.28;;;-2.05;90.22
8318;BME280;4196;48.926;8.964;2024-01-15T01:05:48;98084.47;;;-1.80;90.68
8318;BME280;4196;48.926;8.964;2024-01-15T01:08:36;98073.59;;;-1.76;89.99
8318;BME280;4196;48.926;8.964;2024-01-15T01:11:22;98054.50;;;-1.92;90.23
8318;BME280;4196;48.926;8.964;2024-01-15T01:14:09;98060.81;;;-1.79;90.01
8318;BME280;4196;48.926;8.964;2024-01-15T01:16:56;98092.31;;;-1.73;90.15
8318;BME280;4196;48.926;8.964;2024-01-15T01:19:42;98085.78;;;-1.64;90.01
8318;BME280;4196;48.926;8.964;2024-01-15T01:22:29;98038.53;;;-1.88;90.06
8318;BME280;4196;48.926;8.964;2024-01-15T01:25:15;98065.25;;;-1.72;89.80
8318;BME280;4196;48.926;8.964;2024-01-15T01:28:02;98058.53;;;-1.70;89.37
8318;BME280;4196;48.926;8.964;2024-01-15T01:30:48;98029.81;;;-1.98;90.04
8318;BME280;4196;48.926;8.964;2024-01-15T01:33:35;98063.50;;;-1.73;90.15
8318;BME280;4196;48.926;8.964;2024-01-15T01:36:21;98063.66;;;-1.68;90.19
8318;BME280;4196;48.926;8.964;2024-01-15T01:39:08;98055.84;;;-1.75;90.10
8318;BME280;4196;48.926;8.964;2024-01-15T01:41:55;98074.59;;;-1.70;90.53
8318;BME280;4196;48.926;8.964;2024-01-15T01:44:41;98059.75;;;-1.86;90.69
8318;BME280;4196;48.926;8.964;2024-01-15T01:47:28;98049.63;;;-1.86;90.94
8318;BME280;4196;48.926;8.964;2024-01-15T01:50:14;98023.03;;;-1.99;91.18
8318;BME280;4196;48.926;8.964;2024-01-15T01:53:01;98050.22;;;-1.95;90.65
8318;BME280;4196;48.926;8.964;2024-01-15T01:55:50;98072.06;;;-1.70;90.75
8318;BME280;4196;48.926;8.964;2024-01-15T01:58:37;98052.81;;;-1.63;90.29
8318;BME280;4196;48.926;8.964;2024-01-15T02:01:23;98040.63;;;-1.75;89.64
8318;BME280;4196;48.926;8.964;2024-01-15T02:04:11;98036.47;;;-1.73;89.81
8318;BME280;4196;48.926;8.964;2024-01-15T02:06:59;98060.75;;;-1.52;89.82
8318;BME280;4196;48.926;8.964;2024-01-15T02:09:45;98061.69;;;-1.49;89.57
8318;BME280;4196;48.926;8.964;2024-01-15T02:12:32;98031.84;;;-1.57;89.16
8318;BME280;4196;48.926;8.964;2024-01-15T02:15:18;98042.00;;;-1.57;89.12
8318;BME280;4196;48.926;8.964;2024-01-15T02:18:06;98055.97;;;-1.41;89.17
8318;BME280;4196;48.926;8.964;2024-01-15T02:20:56;98047.16;;;-1.54;89.37
8318;BME280;4196;48.926;8.964;2024-01-15T02:23:42;98024.00;;;-1.65;89.54
8318;BME280;4196;48.926;8.964;2024-01-15T02:26:29;98027.63;;;-1.57;89.84
8318;BME280;4196;48.926;8.964;2024-01-15T02:29:15;98059.22;;;-1.47;89.99
8318;BME280;4196;48.926;8.964;2024-01-15T02:32:04;98060.06;;;-1.47;90.01
8318;BME280;4196;48.926;8.964;2024-01-15T02:34:51;98032.19;;;-1.45;89.70
8318;BME280;4196;48.926;8.964;2024-01-15T02:37:38;97989.88;;;-1.75;89.29
8318;BME280;4196;48.926;8.964;2024-01-15T02:40:24;98029.44;;;-1.53;90.06
8318;BME280;4196;48.926;8.964;2024-01-15T02:43:11;98040.84;;;-1.37;89.36
8318;BME280;4196;48.926;8.964;2024-01-15T02:45:58;98044.97;;;-1.42;89.64
8318;BME280;4196;48.926;8.964;2024-01-15T02:48:44;98023.53;;;-1.52;89.41
8318;BME280;4196;48.926;8.964;2024-01-15T02:51:31;98020.31;;;-1.46;89.60
8318;BME280;4196;48.926;8.964;2024-01-15T02:54:17;98040.53;;;-1.49;90.20
8318;BME280;4196;48.926;8.964;2024-01-15T02:57:04;98002.75;;;-1.68;90.31
8318;BME280;4196;48.926;8.964;2024-01-15T02:59:50;98029.84;;;-1.37;90.19
8318;BME280;4196;48.926;8.964;2024-01-15T03:02:38;97947.78;;;-1.98;90.15
8318;BME280;4196;48.926;8.964;2024-01-15T03:05:33;98041.97;;;-1.29;90.47
8318;BME280;4196;48.926;8.964;2024-01-15T03:08:19;98036.44;;;-1.44;90.42
8318;BME280;4196;48.926;8.964;2024-01-15T03:11:06;98005.94;;;-1.46;90.60
8318;BME280;4196;48.926;8.964;2024-01-15T03:13:52;98012.03;;;-1.39;90.38
8318;BME280;4196;48.926;8.964;2024-01-15T03:16:39;98011.94;;;-1.43;90.38
8318;BME280;4196;48.926;8.964;2024-01-15T03:19:25;97982.88;;;-1.53;90.47
8318;BME280;4196;48.926;8.964;2024-01-15T03:22:12;98009.66;;;-1.33;90.49
8318;BME280;4196;48.926;8.964;2024-01-15T03:24:58;98013.94;;;-1.32;90.25
8318;BME280;4196;48.926;8.964;2024-01-15T03:27:45;98029.59;;;-1.16;90.40
8318;BME280;4196;48.926;8.964;2024-01-15T03:30:31;97965.94;;;-1.54;90.25
8318;BME280;4196;48.926;8.964;2024-01-15T03:33:18;98002.94;;;-1.32;90.42
8318;BME280;4196;48.926;8.964;2024-01-15T03:36:05;97999.78;;;-1.22;90.42
8318;BME280;4196;48.926;8.964;2024-01-15T03:38:51;98018.47;;;-1.20;89.89
8318;BME280;4196;48.926;8.964;2024-01-15T03:41:38;97986.75;;;-1.36;90.34
8318;BME280;4196;48.926;8.964;2024-01-15T03:44:24;97995.41;;;-1.28;90.33
8318;BME280;4196;48.926;8.964;2024-01-15T03:47:10;98009.16;;;-1.21;90.50
8318;BME280;4196;48.926;8.964;2024-01-15T03:49:57;97938.06;;;-1.51;90.22
8318;BME280;4196;48.926;8.964;2024-01-15T03:52:43;98026.63;;;-1.00;89.76
8318;BME280;4196;48.926;8.964;2024-01-15T03:55:30;97959.78;;;-1.31;89.93
8318;BME280;4196;48.926;8.964;2024-01-15T03:58:16;98001.22;;;-1.00;89.47
8318;BME280;4196;48.926;8.964;2024-01-15T04:01:03;97989.91;;;-1.11;89.52
8318;BME280;4196;48.926;8.964;2024-01-15T04:03:49;98006.44;;;-0.95;90.00
8318;BME280;4196;48.926;8.964;2024-01-15T04:06:36;97985.19;;;-0.98;88.94
8318;BME280;4196;48.926;8.964;2024-01-15T04:09:22;97964.69;;;-1.04;88.75
8318;BME280;4196;48.926;8.964;2024-01-15T04:12:09;97966.50;;;-1.00;88.20
8318;BME280;4196;48.926;8.964;2024-01-15T04:14:55;97979.41;;;-0.92;87.89
8318;BME280;4196;48.926;8.964;2024-01-15T04:17:42;97924.25;;;-1.31;88.62
8318;BME280;4196;48.926;8.964;2024-01-15T04:20:28;97980.41;;;-0.85;88.38
8318;BME280;4196;48.926;8.964;2024-01-15T04:23:15;97956.56;;;-0.90;87.76
8318;BME280;4196;48.926;8.964;2024-01-15T04:26:01;97976.97;;;-0.87;87.99
8318;BME280;4196;48.926;8.964;2024-01-15T04:28:47;97970.97;;;-0.91;88.50
8318;BME280;4196;48.926;8.964;2024-01-15T04:31:34;97974.19;;;-0.98;88.58
8318;BME280;4196;48.926;8.964;2024-01-15T04:34:20;97979.41;;;-0.92;89.11
8318;BME280;4196;48.926;8.964;2024-01-15T04:37:07;97979.63;;;-0.83;88.57
8318;BME280;4196;48.926;8.964;2024-01-15T04:39:53;97960.03;;;-0.88;88.81
8318;BME280;4196;48.926;8.964;2024-01-15T04:42:41;97917.91;;;-1.13;88.58
8318;BME280;4196;48.926;8.964;2024-01-15T04:45:27;97947.06;;;-0.99;88.38
8318;BME280;4196;48.926;8.964;2024-01-15T04:48:15;97919.84;;;-1.03;88.53
8318;BME280;4196;48.926;8.964;2024-01-15T04:51:04;97964.31;;;-0.86;88.04
8318;BME280;4196;48.926;8.964;2024-01-15T04:53:51;97931.09;;;-0.93;87.82
8318;BME280;4196;48.926;8.964;2024-01-15T04:56:37;97948.94;;;-0.92;87.85
8318;BME280;4196;48.926;8.964;2024-01-15T04:59:24;97964.63;;;-0.74;87.27
8318;BME280;4196;48.926;8.964;2024-01-15T05:02:10;97917.09;;;-1.11;87.80
8318;BME280;4196;48.926;8.964;2024-01-15T05:04:57;97971.50;;;-0.69;87.48
8318;BME280;4196;48.926;8.964;2024-01-15T05:07:43;97942.28;;;-0.87;86.62
8318;BME280;4196;48.926;8.964;2024-01-15T05:10:30;97900.22;;;-1.10;86.67
8318;BME280;4196;48.926;8.964;2024-01-15T05:13:16;97958.47;;;-0.82;86.91
8318;BME280;4196;48.926;8.964;2024-01-15T05:16:03;97938.94;;;-0.84;86.72
8318;BME280;4196;48.926;8.964;2024-01-15T05:18:50;97932.97;;;-0.86;86.71
8318;BME280;4196;48.926;8.964;2024-01-15T05:21:37;97939.06;;;-0.80;87.39
8318;BME280;4196;48.926;8.964;2024-01-15T05:24:23;97952.63;;;-0.78;86.74
8318;BME280;4196;48.926;8.964;2024-01-15T05:27:10;97918.97;;;-1.05;86.57
8318;BME280;4196;48.926;8.964;2024-01-15T05:29:56;97944.72;;;-0.90;86.48
8318;BME280;4196;48.926;8.964;2024-01-15T05:32:43;97942.13;;;-0.57;85.75
8318;BME280;4196;48.926;8.964;2024-01-15T05:35:29;97930.69;;;-0.74;85.50
8318;BME280;4196;48.926;8.964;2024-01-15T05:38:16;97904.91;;;-0.91;84.93
8318;BME280;4196;48.926;8.964;2024-01-15T05:41:03;97959.75;;;-0.64;84.75
8318;BME280;4196;48.926;8.964;2024-01-15T05:43:49;97916.78;;;-0.90;84.87
8318;BME280;4196;48.926;8.964;2024-01-15T05:46:36;97932.75;;;-0.59;83.83
8318;BME280;4196;48.926;8.964;2024-01-15T05:49:22;97954.25;;;-0.45;83.57
8318;BME280;4196;48.926;8.964;2024-01-15T05:52:08;97953.31;;;-0.49;83.95
8318;BME280;4196;48.926;8.964;2024-01-15T05:54:55;97948.91;;;-0.57;83.95
8318;BME280;4196;48.926;8.964;2024-01-15T05:57:41;97934.41;;;-0.61;83.89
8318;BME280;4196;48.926;8.964;2024-01-15T06:00:28;97926.03;;;-0.56;83.03
8318;BME280;4196;48.926;8.964;2024-01-15T06:03:14;97908.63;;;-0.77;84.45
8318;BME280;4196;48.926;8.964;2024-01-15T06:06:01;97923.31;;;-0.65;84.97
8318;BME280;4196;48.926;8.964;2024-01-15T06:08:47;97883.81;;;-0.88;84.28
8318;BME280;4196;48.926;8.964;2024-01-15T06:11:34;97920.59;;;-0.73;84.80
8318;BME280;4196;48.926;8.964;2024-01-15T06:14:20;97861.31;;;-0.71;82.57
8318;BME280;4196;48.926;8.964;2024-01-15T06:17:06;97891.53;;;-0.46;80.83
8318;BME280;4196;48.926;8.964;2024-01-15T06:19:53;97861.31;;;-0.71;80.52
8318;BME280;4196;48.926;8.964;2024-01-15T06:22:39;97929.28;;;-0.25;80.59
8318;BME280;4196;48.926;8.964;2024-01-15T06:25:25;97898.84;;;-0.60;82.04
8318;BME280;4196;48.926;8.964;2024-01-15T06:28:12;97898.75;;;-0.63;82.45
8318;BME280;4196;48.926;8.964;2024-01-15T06:30:59;97922.56;;;-0.59;82.80
8318;BME280;4196;48.926;8.964;2024-01-15T06:33:45;97911.03;;;-0.83;83.62
8318;BME280;4196;48.926;8.964;2024-01-15T06:36:34;97911.50;;;-0.99;84.87
8318;BME280;4196;48.926;8.964;2024-01-15T06:39:21;97913.78;;;-1.08;86.21
8318;BME280;4196;48.926;8.964;2024-01-15T06:42:07;97903.59;;;-1.10;86.21
8318;BME280;4196;48.926;8.964;2024-01-15T06:44:54;97888.84;;;-1.25;85.94
8318;BME280;4196;48.926;8.964;2024-01-15T06:47:40;97906.41;;;-0.99;86.28
8318;BME280;4196;48.926;8.964;2024-01-15T06:50:28;97860.72;;;-0.96;84.91
8318;BME280;4196;48.926;8.964;2024-01-15T06:53:14;97878.91;;;-1.15;84.97
8318;BME280;4196;48.926;8.964;2024-01-15T06:56:01;97904.75;;;-0.97;86.71
8318;BME280;4196;48.926;8.964;2024-01-15T06:58:47;97897.81;;;-1.04;87.53
8318;BME280;4196;48.926;8.964;2024-01-15T07:01:33;97887.19;;;-1.23;88.14
8318;BME280;4196;48.926;8.964;2024-01-15T07:04:20;97897.44;;;-1.19;89.11
8318;BME280;4196;48.926;8.964;2024-01-15T07:07:07;97921.22;;;-1.16;89.99
8318;BME280;4196;48.926;8.964;2024-01-15T07:09:53;97910.09;;;-1.21;90.85
8318;BME280;4196;48.926;8.964;2024-01-15T07:12:43;97909.31;;;-1.18;91.07
8318;BME280;4196;48.926;8.964;2024-01-15T07:15:30;97879.84;;;-1.45;92.36
8318;BME280;4196;48.926;8.964;2024-01-15T07:18:16;97910.78;;;-1.27;92.35
8318;BME280;4196;48.926;8.964;2024-01-15T07:21:03;97871.41;;;-1.44;92.47
8318;BME280;4196;48.926;8.964;2024-01-15T07:23:50;97905.06;;;-1.18;92.75
8318;BME280;4196;48.926;8.964;2024-01-15T07:26:37;97851.50;;;-1.29;91.34
8318;BME280;4196;48.926;8.964;2024-01-15T07:29:23;97925.22;;;-0.91;91.10
8318;BME280;4196;48.926;8.964;2024-01-15T07:32:10;97924.88;;;-1.05;91.00
8318;BME280;4196;48.926;8.964;2024-01-15T07:34:56;97904.78;;;-1.30;91.59
8318;BME280;4196;48.926;8.964;2024-01-15T07:37:42;97910.88;;;-1.24;91.04
8318;BME280;4196;48.926;8.964;2024-01-15T07:40:29;97875.72;;;-1.41;91.14
8318;BME280;4196;48.926;8.964;2024-01-15T07:43:15;97917.06;;;-1.14;91.23
8318;BME280;4196;48.926;8.964;2024-01-15T07:46:02;97904.53;;;-1.06;90.01
8318;BME280;4196;48.926;8.964;2024-01-15T07:48:49;97896.00;;;-1.08;89.40
8318;BME280;4196;48.926;8.964;2024-01-15T07:51:37;97908.03;;;-1.01;88.89
8318;BME280;4196;48.926;8.964;2024-01-15T07:54:23;97907.38;;;-0.92;88.91
8318;BME280;4196;48.926;8.964;2024-01-15T07:57:10;97901.47;;;-0.93;89.15
8318;BME280;4196;48.926;8.964;2024-01-15T07:59:57;97892.88;;;-0.98;88.45
8318;BME280;4196;48.926;8.964;2024-01-15T08:02:43;97941.44;;;-0.51;87.13
8318;BME280;4196;48.926;8.964;2024-01-15T08:05:30;97882.28;;;-0.80;86.02
8318;BME280;4196;48.926;8.964;2024-01-15T08:08:16;97901.09;;;-0.72;84.11
8318;BME280;4196;48.926;8.964;2024-01-15T08:11:03;97871.38;;;-0.75;82.38
8318;BME280;4196;48.926;8.964;2024-01-15T08:13:50;97892.81;;;-0.26;80.75
8318;BME280;4196;48.926;8.964;2024-01-15T08:16:37;97930.59;;;-0.03;79.25
8318;BME280;4196;48.926;8.964;2024-01-15T08:19:23;97923.84;;;-0.01;78.71
8318;BME280;4196;48.926;8.964;2024-01-15T08:22:10;97887.75;;;-0.26;77.49
8318;BME280;4196;48.926;8.964;2024-01-15T08:24:56;97921.28;;;-0.03;77.02
8318;BME280;4196;48.926;8.964;2024-01-15T08:27:43;97911.72;;;-0.14;76.46
8318;BME280;4196;48.926;8.964;2024-01-15T08:30:29;97924.22;;;0.17;76.13
8318;BME280;4196;48.926;8.964;2024-01-15T08:33:16;97905.75;;;0.28;74.56
8318;BME280;4196;48.926;8.964;2024-01-15T08:36:07;97844.69;;;-0.15;73.66
8318;BME280;4196;48.926;8.964;2024-01-15T08:38:55;97856.19;;;0.10;72.52
8318;BME280;4196;48.926;8.964;2024-01-15T08:41:41;97883.75;;;0.31;72.28
8318;BME280;4196;48.926;8.964;2024-01-15T08:44:27;97866.78;;;0.32;71.19
8318;BME280;4196;48.926;8.964;2024-01-15T08:47:14;97927.59;;;0.62;71.57
8318;BME280;4196;48.926;8.964;2024-01-15T08:50:00;97862.69;;;0.38;70.89
8318;BME280;4196;48.926;8.964;2024-01-15T08:52:47;97915.00;;;0.68;70.74
8318;BME280;4196;48.926;8.964;2024-01-15T08:55:33;97866.84;;;0.35;71.32
8318;BME280;4196;48.926;8.964;2024-01-15T08:58:20;97880.97;;;0.64;70.42
8318;BME280;4196;48.926;8.964;2024-01-15T09:01:09;97917.84;;;0.85;70.46
8318;BME280;4196;48.926;8.964;2024-01-15T09:03:56;97885.34;;;0.73;71.06
8318;BME280;4196;48.926;8.964;2024-01-15T09:06:45;97898.22;;;0.81;71.71
8318;BME280;4196;48.926;8.964;2024-01-15T09:09:33;97888.00;;;0.78;71.88
8318;BME280;4196;48.926;8.964;2024-01-15T09:12:21;97872.66;;;0.75;72.62
8318;BME280;4196;48.926;8.964;2024-01-15T09:15:08;97847.69;;;0.55;72.49
8318;BME280;4196;48.926;8.964;2024-01-15T09:17:55;97827.53;;;0.69;71.85
8318;BME280;4196;48.926;8.964;2024-01-15T09:20:44;97890.06;;;1.00;71.87
8318;BME280;4196;48.926;8.964;2024-01-15T09:23:30;97828.25;;;0.60;72.45
8318;BME280;4196;48.926;8.964;2024-01-15T09:26:17;97824.25;;;0.76;71.56
8318;BME280;4196;48.926;8.964;2024-01-15T09:29:03;97885.03;;;1.03;71.36
8318;BME280;4196;48.926;8.964;2024-01-15T09:31:50;97852.47;;;0.87;71.41
8318;BME280;4196;48.926;8.964;2024-01-15T09:34:37;97886.16;;;1.22;71.90
8318;BME280;4196;48.926;8.964;2024-01-15T09:37:24;97879.44;;;1.29;71.22
8318;BME280;4196;48.926;8.964;2024-01-15T09:40:31;97830.72;;;1.07;70.22
8318;BME280;4196;48.926;8.964;2024-01-15T09:43:19;97829.97;;;1.17;69.79
8318;BME280;4196;48.926;8.964;2024-01-15T09:46:06;97856.63;;;1.38;69.64
8318;BME280;4196;48.926;8.964;2024-01-15T09:48:53;97852.28;;;1.32;69.89
8318;BME280;4196;48.926;8.964;2024-01-15T09:51:40;97872.19;;;1.56;69.15
8318;BME280;4196;48.926;8.964;2024-01-15T09:54:27;97879.19;;;1.71;69.68
8318;BME280;4196;48.926;8.964;2024-01-15T09:57:16;97879.25;;;1.76;68.88
8318;BME280;4196;48.926;8.964;2024-01-15T10:00:09;97873.25;;;1.72;69.44
8318;BME280;4196;48.926;8.964;2024-01-15T10:02:58;97878.50;;;1.81;69.04
8318;BME280;4196;48.926;8.964;2024-01-15T10:05:47;97873.38;;;1.81;69.42
8318;BME280;4196;48.926;8.964;2024-01-15T10:08:36;97865.63;;;1.74;68.25
8318;BME280;4196;48.926;8.964;2024-01-15T10:11:26;97860.56;;;1.77;68.50
8318;BME280;4196;48.926;8.964;2024-01-15T10:14:12;97861.34;;;1.71;68.87
8318;BME280;4196;48.926;8.964;2024-01-15T10:17:12;97842.50;;;1.60;69.17
8318;BME280;4196;48.926;8.964;2024-01-15T10:19:58;97843.34;;;1.59;69.84
8318;BME280;4196;48.926;8.964;2024-01-15T10:22:50;97781.75;;;1.31;69.89
8318;BME280;4196;48.926;8.964;2024-01-15T10:25:37;97823.69;;;1.52;69.65
8318;BME280;4196;48.926;8.964;2024-01-15T10:28:26;97833.09;;;1.57;70.26
8318;BME280;4196;48.926;8.964;2024-01-15T10:31:12;97839.19;;;1.67;70.98
8318;BME280;4196;48.926;8.964;2024-01-15T10:34:12;97822.84;;;1.54;71.32
8318;BME280;4196;48.926;8.964;2024-01-15T10:37:01;97827.03;;;1.51;71.66
8318;BME280;4196;48.926;8.964;2024-01-15T10:39:49;97840.66;;;1.50;73.84
8318;BME280;4196;48.926;8.964;2024-01-15T10:42:36;97848.19;;;1.42;75.74
8318;BME280;4196;48.926;8.964;2024-01-15T10:45:26;97837.84;;;1.30;77.40
8318;BME280;4196;48.926;8.964;2024-01-15T10:48:19;97837.72;;;1.24;79.22
8318;BME280;4196;48.926;8.964;2024-01-15T10:51:06;97842.00;;;1.25;80.57
8318;BME280;4196;48.926;8.964;2024-01-15T10:53:59;97828.44;;;1.27;81.37
8318;BME280;4196;48.926;8.964;2024-01-15T10:56:46;97835.13;;;1.20;84.80
8318;BME280;4196;48.926;8.964;2024-01-15T10:59:33;97817.91;;;1.04;87.74
8318;BME280;4196;48.926;8.964;2024-01-15T11:02:25;97822.22;;;1.08;91.31
8318;BME280;4196;48.926;8.964;2024-01-15T11:05:12;97839.06;;;0.99;94.07
8318;BME280;4196;48.926;8.964;2024-01-15T11:08:00;97826.88;;;0.81;97.08
8318;BME280;4196;48.926;8.964;2024-01-15T11:10:50;97828.44;;;0.72;99.00
8318;BME280;4196;48.926;8.964;2024-01-15T11:16:24;97825.72;;;0.60;100.00
8318;BME280;4196;48.926;8.964;2024-01-15T11:19:37;97818.13;;;0.63;100.00
8318;BME280;4196;48.926;8.964;2024-01-15T11:25:20;97790.91;;;0.62;100.00
8318;BME280;4196;48.926;8.964;2024-01-15T11:28:07;97803.03;;;0.76;100.00
8318;BME280;4196;48.926;8.964;2024-01-15T11:30:54;97805.75;;;0.86;100.00
8318;BME280;4196;48.926;8.964;2024-01-15T11:33:48;97796.91;;;0.64;100.00
8318;BME280;4196;48.926;8.964;2024-01-15T11:39:42;97811.22;;;0.56;100.00
8318;BME280;4196;48.926;8.964;2024-01-15T11:42:32;97821.41;;;0.56;100.00
8318;BME280;4196;48.926;8.964;2024-01-15T11:45:19;97819.63;;;0.52;100.00
8318;BME280;4196;48.926;8.964;2024-01-15T11:51:00;97828.84;;;0.45;100.00
8318;BME280;4196;48.926;8.964;2024-01-15T11:53:48;97827.03;;;0.40;100.00
8318;BME280;4196;48.926;8.964;2024-01-15T11:56:38;97832.97;;;0.37;100.00
8318;BME280;4196;48.926;8.964;2024-01-15T11:59:24;97829.38;;;0.28;100.00
8318;BME280;4196;48.926;8.964;2024-01-15T12:02:11;97811.88;;;0.44;100.00
8318;BME280;4196;48.926;8.964;2024-01-15T12:04:59;97821.09;;;0.38;100.00
8318;BME280;4196;48.926;8.964;2024-01-15T12:07:50;97826.63;;;0.65;100.00
8318;BME280;4196;48.926;8.964;2024-01-15T12:10:37;97789.88;;;0.48;100.00
8318;BME280;4196;48.926;8.964;2024-01-15T12:13:25;97823.09;;;0.57;100.00
8318;BME280;4196;48.926;8.964;2024-01-15T12:16:14;97824.94;;;0.64;100.00
8318;BME280;4196;48.926;8.964;2024-01-15T12:19:03;97799.91;;;0.40;100.00
8318;BME280;4196;48.926;8.964;2024-01-15T12:21:53;97832.28;;;0.47;100.00
8318;BME280;4196;48.926;8.964;2024-01-15T12:24:39;97819.53;;;0.46;100.00
8318;BME280;4196;48.926;8.964;2024-01-15T12:27:26;97825.41;;;0.43;100.00
8318;BME280;4196;48.926;8.964;2024-01-15T12:30:13;97827.19;;;0.47;100.00
8318;BME280;4196;48.926;8.964;2024-01-15T12:33:04;97820.44;;;0.51;100.00
8318;BME280;4196;48.926;8.964;2024-01-15T12:35:54;97823.06;;;0.54;100.00
8318;BME280;4196;48.926;8.964;2024-01-15T12:38:41;97829.81;;;0.52;100.00
8318;BME280;4196;48.926;8.964;2024-01-15T12:41:30;97806.13;;;0.56;100.00
8318;BME280;4196;48.926;8.964;2024-01-15T12:44:22;97825.66;;;0.56;100.00
8318;BME280;4196;48.926;8.964;2024-01-15T12:47:12;97807.69;;;0.48;100.00
8318;BME280;4196;48.926;8.964;2024-01-15T12:50:01;97831.66;;;0.61;100.00
8318;BME280;4196;48.926;8.964;2024-01-15T12:57:23;97810.97;;;0.41;100.00
8318;BME280;4196;48.926;8.964;2024-01-15T13:00:11;97821.22;;;0.47;100.00
8318;BME280;4196;48.926;8.964;2024-01-15T13:03:00;97828.09;;;0.51;100.00
8318;BME280;4196;48.926;8.964;2024-01-15T13:05:52;97820.50;;;0.54;100.00
8318;BME280;4196;48.926;8.964;2024-01-15T13:08:45;97835.00;;;0.58;100.00
8318;BME280;4196;48.926;8.964;2024-01-15T13:11:32;97843.59;;;0.63;100.00
8318;BME280;4196;48.926;8.964;2024-01-15T13:14:20;97812.59;;;0.39;100.00
8318;BME280;4196;48.926;8.964;2024-01-15T13:17:06;97833.25;;;0.54;100.00
8318;BME280;4196;48.926;8.964;2024-01-15T13:19:52;97850.28;;;0.58;100.00
8318;BME280;4196;48.926;8.964;2024-01-15T13:22:39;97833.28;;;0.57;100.00
8318;BME280;4196;48.926;8.964;2024-01-15T13:25:27;97837.03;;;0.78;100.00
8318;BME280;4196;48.926;8.964;2024-01-15T13:28:13;97848.16;;;0.84;100.00
8318;BME280;4196;48.926;8.964;2024-01-15T13:31:00;97833.72;;;0.82;100.00
8318;BME280;4196;48.926;8.964;2024-01-15T13:33:47;97852.56;;;0.93;100.00
8318;BME280;4196;48.926;8.964;2024-01-15T13:36:34;97813.00;;;0.62;100.00
8318;BME280;4196;48.926;8.964;2024-01-15T13:39:23;97836.81;;;0.65;100.00
8318;BME280;4196;48.926;8.964;2024-01-15T13:42:10;97857.31;;;0.71;100.00
8318;BME280;4196;48.926;8.964;2024-01-15T13:44:58;97847.13;;;0.71;100.00
8318;BME280;4196;48.926;8.964;2024-01-15T13:47:45;97847.06;;;0.68;100.00
8318;BME280;4196;48.926;8.964;2024-01-15T13:50:32;97861.88;;;0.91;100.00
8318;BME280;4196;48.926;8.964;2024-01-15T13:53:18;97831.06;;;0.77;100.00
8318;BME280;4196;48.926;8.964;2024-01-15T13:56:06;97837.78;;;0.72;100.00
8318;BME280;4196;48.926;8.964;2024-01-15T13:58:52;97842.91;;;0.73;100.00
8318;BME280;4196;48.926;8.964;2024-01-15T14:01:38;97874.53;;;0.86;100.00
8318;BME280;4196;48.926;8.964;2024-01-15T14:04:25;97844.31;;;0.56;100.00
8318;BME280;4196;48.926;8.964;2024-01-15T14:07:13;97881.09;;;0.72;100.00
8318;BME280;4196;48.926;8.964;2024-01-15T14:09:59;97872.41;;;0.59;100.00
8318;BME280;4196;48.926;8.964;2024-01-15T14:12:46;97883.50;;;0.63;100.00
8318;BME280;4196;48.926;8.964;2024-01-15T14:15:33;97907.38;;;0.69;100.00
8318;BME280;4196;48.926;8.964;2024-01-15T14:18:19;97880.63;;;0.46;100.00
8318;BME280;4196;48.926;8.964;2024-01-15T14:21:09;97897.56;;;0.44;100.00
8318;BME280;4196;48.926;8.964;2024-01-15T14:23:57;97921.59;;;0.58;100.00
8318;BME280;4196;48.926;8.964;2024-01-15T14:26:43;97898.41;;;0.43;100.00
8318;BME280;4196;48.926;8.964;2024-01-15T14:29:30;97935.22;;;0.60;100.00
8318;BME280;4196;48.926;8.964;2024-01-15T14:32:16;97903.34;;;0.35;100.00
8318;BME280;4196;48.926;8.964;2024-01-15T14:35:03;97937.72;;;0.56;100.00
8318;BME280;4196;48.926;8.964;2024-01-15T14:37:51;97948.66;;;0.52;100.00
8318;BME280;4196;48.926;8.964;2024-01-15T14:40:37;97944.44;;;0.52;100.00
8318;BME280;4196;48.926;8.964;2024-01-15T14:43:24;97929.94;;;0.51;100.00
8318;BME280;4196;48.926;8.964;2024-01-15T14:46:10;97930.78;;;0.48;100.00
8318;BME280;4196;48.926;8.964;2024-01-15T14:48:57;97955.47;;;0.54;100.00
8318;BME280;4196;48.926;8.964;2024-01-15T14:51:45;97953.84;;;0.58;100.00
8318;BME280;4196;48.926;8.964;2024-01-15T14:54:32;97955.69;;;0.63;100.00
8318;BME280;4196;48.926;8.964;2024-01-15T14:57:18;97961.47;;;0.56;100.00
8318;BME280;4196;48.926;8.964;2024-01-15T15:00:06;97967.38;;;0.55;100.00
8318;BME280;4196;48.926;8.964;2024-01-15T15:02:56;97973.41;;;0.59;100.00
8318;BME280;4196;48.926;8.964;2024-01-15T15:05:42;97953.72;;;0.50;100.00
8318;BME280;4196;48.926;8.964;2024-01-15T15:08:29;97986.13;;;0.59;100.00
8318;BME280;4196;48.926;8.964;2024-01-15T15:11:18;97966.56;;;0.56;98.31
8318;BME280;4196;48.926;8.964;2024-01-15T15:14:04;97988.69;;;0.59;97.95
8318;BME280;4196;48.926;8.964;2024-01-15T15:16:51;97983.41;;;0.50;98.28
8318;BME280;4196;48.926;8.964;2024-01-15T15:19:38;98004.06;;;0.63;98.47
8318;BME280;4196;48.926;8.964;2024-01-15T15:22:28;98009.00;;;0.56;98.12
8318;BME280;4196;48.926;8.964;2024-01-15T15:25:15;98012.22;;;0.47;98.63
8318;BME280;4196;48.926;8.964;2024-01-15T15:28:02;98010.56;;;0.49;98.36
8318;BME280;4196;48.926;8.964;2024-01-15T15:30:51;98021.53;;;0.45;98.52